Time;durP1;ratioP1;P1;durP2;ratioP2;P2;SDS_P1;SDS_P2;PMS_P1;PMS_P2;Temp;Humidity;BMP_temperature;BMP_pressure;BME280_temperature;BME280_humidity;BME280_pressure;Samples;Min_cycle;Max_cycle;Signal;HPM_P1;HPM_P2
2023/11/07 00:02:27;;;;;;;4.83;1.13;;;;;;;9.91;86.41;99882.03;5024469;28;20204;-82
2023/11/07 00:04:56;;;;;;;2.97;1.20;;;;;;;9.91;86.49;99871.41;5012474;28;20206;-83
2023/11/07 00:07:24;;;;;;;6.13;1.00;;;;;;;9.90;86.61;99877.69;5022754;28;20726;-81
2023/11/07 00:09:51;;;;;;;3.60;0.90;;;;;;;9.92;86.58;99889.06;5023738;28;20233;-80
2023/11/07 00:15:04;;;;;;;2.50;0.90;;;;;;;9.96;86.24;99898.53;5026952;28;20225;-82
2023/11/07 00:17:36;;;;;;;2.90;1.00;;;;;;;9.97;86.01;99887.78;5025329;28;20203;-81
2023/11/07 00:20:24;;;;;;;4.80;0.90;;;;;;;10.04;85.59;99893.47;5029945;28;20223;-82
2023/11/07 00:22:57;;;;;;;1.27;0.70;;;;;;;10.04;85.59;99898.81;4919805;28;20302;-80
2023/11/07 00:25:26;;;;;;;1.57;0.83;;;;;;;10.02;85.47;99901.59;5015514;28;20211;-81
2023/11/07 00:27:52;;;;;;;2.20;1.00;;;;;;;10.06;84.68;99903.06;5009605;28;20207;-80
2023/11/07 00:30:19;;;;;;;2.00;0.80;;;;;;;10.07;84.64;99911.88;5011310;28;20218;-80
2023/11/07 00:32:46;;;;;;;3.90;1.10;;;;;;;10.07;84.78;99903.91;5013679;28;20621;-81
2023/11/07 00:35:12;;;;;;;1.80;1.07;;;;;;;10.09;84.17;99902.00;5006938;28;20307;-80
2023/11/07 00:37:39;;;;;;;2.70;0.80;;;;;;;10.11;83.89;99905.38;5014553;28;20209;-81
2023/11/07 00:40:09;;;;;;;1.93;0.60;;;;;;;10.14;83.96;99910.50;5013907;28;20595;-81
2023/11/07 00:42:36;;;;;;;3.03;0.87;;;;;;;10.13;83.88;99911.44;5008294;28;20258;-81
2023/11/07 00:45:03;;;;;;;3.07;0.63;;;;;;;10.09;84.60;99913.47;5015461;28;20213;-80
2023/11/07 00:47:29;;;;;;;3.07;0.80;;;;;;;10.10;83.94;99917.00;5015570;28;20654;-80
2023/11/07 00:49:55;;;;;;;2.27;0.67;;;;;;;10.08;84.25;99926.91;5013942;28;20227;-80
2023/11/07 00:52:22;;;;;;;3.03;0.80;;;;;;;10.12;83.71;99922.22;5010164;28;20206;-80
2023/11/07 00:54:49;;;;;;;2.13;0.70;;;;;;;10.12;83.89;99920.41;5012624;28;20601;-80
2023/11/07 00:57:16;;;;;;;3.20;0.90;;;;;;;10.09;84.09;99928.59;5015423;28;20577;-79
2023/11/07 00:59:43;;;;;;;2.53;0.90;;;;;;;10.14;84.05;99929.13;5012051;28;20222;-80
2023/11/07 01:02:11;;;;;;;1.50;0.90;;;;;;;10.15;83.74;99922.00;5011438;28;20230;-80
2023/11/07 01:04:38;;;;;;;0.90;0.70;;;;;;;10.15;83.40;99933.47;5015257;28;20772;-80
2023/11/07 01:07:05;;;;;;;3.13;0.80;;;;;;;10.13;83.47;99946.03;5015997;28;20211;-81
2023/11/07 01:09:31;;;;;;;3.87;1.10;;;;;;;10.17;83.46;99942.22;5009757;28;20735;-82
2023/11/07 01:11:57;;;;;;;4.27;1.00;;;;;;;10.20;83.10;99936.69;5003681;28;20208;-80
2023/11/07 01:14:25;;;;;;;1.37;0.80;;;;;;;10.18;83.12;99943.06;5012108;28;20903;-81
2023/11/07 01:16:52;;;;;;;2.50;0.87;;;;;;;10.17;83.08;99946.69;5012447;28;20210;-80
2023/11/07 01:19:20;;;;;;;3.50;1.20;;;;;;;10.16;83.48;99956.47;5013524;28;20218;-81
2023/11/07 01:21:47;;;;;;;2.47;0.70;;;;;;;10.23;82.99;99948.91;5011041;28;20920;-81
2023/11/07 01:24:13;;;;;;;2.07;0.80;;;;;;;10.18;82.90;99954.56;5011023;28;20672;-81
2023/11/07 01:26:41;;;;;;;1.60;1.00;;;;;;;10.13;83.23;99962.00;5009517;28;20572;-81
2023/11/07 01:29:07;;;;;;;3.23;1.10;;;;;;;10.14;83.24;99969.03;5005889;28;20692;-81
2023/11/07 01:31:35;;;;;;;1.93;0.80;;;;;;;10.16;83.55;99967.13;5014637;28;20556;-80
2023/11/07 01:34:02;;;;;;;2.97;0.70;;;;;;;10.23;82.56;99964.88;5013187;28;20203;-80
2023/11/07 01:36:28;;;;;;;1.93;0.90;;;;;;;10.19;82.77;99971.41;5010177;28;20231;-81
2023/11/07 01:38:55;;;;;;;2.40;0.87;;;;;;;10.20;82.76;99965.13;5002151;28;20226;-80
2023/11/07 01:41:21;;;;;;;4.83;1.10;;;;;;;10.19;82.43;99972.25;4995207;28;20252;-79
2023/11/07 01:43:48;;;;;;;2.10;0.70;;;;;;;10.20;82.63;99967.78;4995518;28;20231;-78
2023/11/07 01:46:15;;;;;;;2.73;0.77;;;;;;;10.15;82.94;99975.22;4994681;28;20216;-79
2023/11/07 01:48:43;;;;;;;2.07;0.90;;;;;;;10.16;82.94;99972.44;4996337;28;20215;-80
2023/11/07 01:51:11;;;;;;;2.17;1.10;;;;;;;10.16;83.00;99977.75;4995067;28;20212;-79
2023/11/07 01:53:38;;;;;;;2.40;0.80;;;;;;;10.15;82.69;99973.41;4994582;28;20259;-81
2023/11/07 01:56:05;;;;;;;1.77;0.90;;;;;;;10.12;82.83;99970.09;4995379;28;20235;-80
2023/11/07 01:58:32;;;;;;;2.80;0.80;;;;;;;10.17;82.07;99974.13;4994835;28;20204;-80
2023/11/07 02:00:59;;;;;;;2.27;0.70;;;;;;;10.16;82.11;99968.94;4995225;28;20228;-79
2023/11/07 02:03:26;;;;;;;2.33;1.47;;;;;;;10.13;82.33;99977.13;4996886;28;20211;-80
2023/11/07 02:05:54;;;;;;;2.47;0.73;;;;;;;10.15;82.31;99980.53;4994329;28;20215;-80
2023/11/07 02:08:22;;;;;;;3.80;1.03;;;;;;;10.17;81.86;99973.28;4995246;28;20219;-81
2023/11/07 02:10:49;;;;;;;1.87;0.80;;;;;;;10.13;81.98;99977.13;4996510;28;20313;-80
2023/11/07 02:13:15;;;;;;;3.70;1.00;;;;;;;10.13;81.81;99975.31;5007108;28;20226;-80
2023/11/07 02:15:42;;;;;;;2.30;1.00;;;;;;;10.12;81.92;99972.75;5014723;28;20235;-81
2023/11/07 02:18:08;;;;;;;4.13;1.00;;;;;;;10.10;81.95;99978.19;5013830;28;20263;-80
2023/11/07 02:20:36;;;;;;;2.30;0.70;;;;;;;10.09;82.20;99977.34;5013627;28;20227;-80
2023/11/07 02:23:09;;;;;;;2.47;0.70;;;;;;;10.09;81.99;99968.50;5014933;28;20225;-79
2023/11/07 02:25:38;;;;;;;2.70;1.00;;;;;;;10.07;82.41;99976.59;5013264;28;20800;-80
2023/11/07 02:28:05;;;;;;;2.77;1.10;;;;;;;10.06;82.05;99982.03;5014283;28;20239;-80
2023/11/07 02:30:32;;;;;;;4.10;0.80;;;;;;;10.06;82.41;99968.72;5014011;28;20250;-80
2023/11/07 02:33:04;;;;;;;4.47;1.30;;;;;;;10.08;81.96;99969.47;5013421;28;20207;-80
2023/11/07 02:35:31;;;;;;;3.33;1.00;;;;;;;10.03;82.46;99967.13;5013588;28;20222;-79
2023/11/07 02:37:57;;;;;;;2.53;0.90;;;;;;;10.04;82.12;99973.28;5013301;28;20216;-79
2023/11/07 02:40:23;;;;;;;1.93;0.80;;;;;;;10.02;82.41;99973.44;5013094;28;20260;-79
2023/11/07 02:42:51;;;;;;;3.43;1.03;;;;;;;9.98;82.70;99973.75;5014343;28;20265;-79
2023/11/07 02:45:18;;;;;;;1.90;0.83;;;;;;;9.97;83.27;99962.28;5013272;28;20206;-79
2023/11/07 02:47:45;;;;;;;5.07;1.00;;;;;;;9.92;83.48;99964.41;5013422;28;20211;-78
2023/11/07 02:50:11;;;;;;;1.33;0.70;;;;;;;9.92;83.31;99969.72;5013668;28;20289;-79
2023/11/07 02:52:38;;;;;;;1.43;0.87;;;;;;;9.91;83.36;99970.69;5013212;28;20234;-79
2023/11/07 02:55:07;;;;;;;2.10;0.90;;;;;;;9.93;83.69;99967.91;5013731;28;20211;-79
2023/11/07 02:57:34;;;;;;;1.57;0.90;;;;;;;9.92;84.00;99963.53;5013492;28;20202;-79
2023/11/07 03:00:02;;;;;;;4.07;0.97;;;;;;;9.86;84.34;99967.47;5013318;28;20323;-79
2023/11/07 03:02:28;;;;;;;2.13;0.83;;;;;;;9.91;83.71;99968.00;5013965;28;20207;-78
2023/11/07 03:04:55;;;;;;;1.67;0.70;;;;;;;9.89;84.47;99966.41;5013314;28;20238;-79
2023/11/07 03:07:23;;;;;;;1.63;1.10;;;;;;;9.86;84.59;99962.16;5013698;28;20210;-80
2023/11/07 03:09:50;;;;;;;3.67;1.00;;;;;;;9.85;84.78;99967.63;5013662;28;20782;-79
2023/11/07 03:12:17;;;;;;;2.70;0.80;;;;;;;9.80;84.85;99967.94;5012783;28;20211;-80
2023/11/07 03:14:45;;;;;;;2.03;0.73;;;;;;;9.78;85.21;99977.81;5013400;28;20210;-79
2023/11/07 03:17:13;;;;;;;2.93;0.80;;;;;;;9.80;85.05;99977.72;5012928;28;20231;-80
2023/11/07 03:19:40;;;;;;;2.87;0.97;;;;;;;9.78;85.63;99976.97;5013293;28;20589;-80
2023/11/07 03:22:07;;;;;;;1.70;0.73;;;;;;;9.77;85.54;99975.28;5014371;28;20895;-81
2023/11/07 03:24:33;;;;;;;2.27;0.87;;;;;;;9.78;85.76;99985.81;5013410;28;20219;-80
2023/11/07 03:27:01;;;;;;;3.67;0.90;;;;;;;9.79;85.30;99982.19;5013307;28;20203;-80
2023/11/07 03:29:28;;;;;;;2.17;0.80;;;;;;;9.82;85.39;99979.31;5013913;28;20231;-79
2023/11/07 03:31:57;;;;;;;2.07;0.60;;;;;;;9.82;85.32;99978.47;5013314;28;20298;-79
2023/11/07 03:34:26;;;;;;;4.50;0.90;;;;;;;9.86;85.06;99983.44;5013942;28;20261;-79
2023/11/07 03:36:53;;;;;;;6.13;1.10;;;;;;;9.84;85.38;99982.72;5013279;28;20229;-79
2023/11/07 03:39:20;;;;;;;2.50;0.70;;;;;;;9.86;85.25;99978.13;5013141;28;20223;-79
2023/11/07 03:41:46;;;;;;;2.30;0.90;;;;;;;9.86;85.04;99979.94;5013841;28;20240;-80
2023/11/07 03:44:13;;;;;;;1.37;0.80;;;;;;;9.87;85.35;99981.63;5013246;28;20660;-79
2023/11/07 03:46:40;;;;;;;2.07;0.80;;;;;;;9.82;85.41;99984.66;5012031;28;20667;-80
2023/11/07 03:49:07;;;;;;;1.40;0.87;;;;;;;9.78;85.65;99974.31;5013180;28;20573;-79
2023/11/07 03:51:35;;;;;;;1.83;0.93;;;;;;;9.78;85.51;99976.97;5013251;28;20660;-79
2023/11/07 03:54:01;;;;;;;1.67;0.80;;;;;;;9.84;84.84;99984.53;5013085;28;20207;-79
2023/11/07 03:56:28;;;;;;;4.33;1.00;;;;;;;9.83;84.86;99975.72;5013316;28;20241;-79
2023/11/07 03:58:55;;;;;;;2.60;0.80;;;;;;;9.83;84.52;99983.69;5012642;28;20289;-79
2023/11/07 04:01:21;;;;;;;2.33;0.90;;;;;;;9.82;84.41;99989.09;5013217;28;20207;-79
2023/11/07 04:03:47;;;;;;;1.83;0.80;;;;;;;9.79;84.44;99981.34;4998719;28;20615;-81
2023/11/07 04:06:14;;;;;;;1.73;0.70;;;;;;;9.80;84.65;99991.03;4993298;28;20200;-80
2023/11/07 04:08:42;;;;;;;2.43;0.63;;;;;;;9.76;84.22;99987.72;4993762;28;20207;-80
2023/11/07 04:11:08;;;;;;;2.10;0.80;;;;;;;9.77;84.37;99985.91;4993105;28;20215;-79
2023/11/07 04:13:35;;;;;;;2.97;0.70;;;;;;;9.73;84.72;99996.75;4993107;28;20218;-79
2023/11/07 04:16:02;;;;;;;2.70;1.47;;;;;;;9.71;84.73;99988.03;4993825;28;20232;-79
2023/11/07 04:18:29;;;;;;;1.77;1.10;;;;;;;9.72;84.67;99994.22;4992250;28;20211;-79
2023/11/07 04:20:56;;;;;;;2.53;1.00;;;;;;;9.70;84.59;99999.63;4992900;28;20229;-80
2023/11/07 04:23:23;;;;;;;3.27;1.00;;;;;;;9.68;84.96;99995.38;4992851;28;20827;-80
2023/11/07 04:25:51;;;;;;;2.90;1.27;;;;;;;9.67;85.00;99993.69;4991754;28;20218;-80
2023/11/07 04:28:17;;;;;;;2.37;1.20;;;;;;;9.66;85.36;99989.34;4992881;28;20219;-80
2023/11/07 04:30:44;;;;;;;2.10;0.90;;;;;;;9.65;85.53;99995.63;4992276;28;20236;-79
2023/11/07 04:33:11;;;;;;;2.63;0.90;;;;;;;9.64;85.46;99994.75;4992633;28;20207;-79
2023/11/07 04:35:38;;;;;;;2.50;1.23;;;;;;;9.65;85.81;100003.59;4993003;28;20211;-79
2023/11/07 04:38:05;;;;;;;5.10;1.93;;;;;;;9.62;86.54;100009.97;4992174;28;20218;-81
2023/11/07 04:40:31;;;;;;;3.37;1.17;;;;;;;9.63;86.11;100000.19;4991880;28;20222;-81
2023/11/07 04:43:00;;;;;;;2.47;1.00;;;;;;;9.64;86.46;99991.25;4992368;28;20215;-80
2023/11/07 04:45:27;;;;;;;3.60;1.00;;;;;;;9.63;86.06;99995.72;4991737;28;20220;-81
2023/11/07 04:47:54;;;;;;;2.03;1.00;;;;;;;9.65;86.40;99995.63;4993255;28;20209;-81
2023/11/07 04:50:21;;;;;;;4.27;1.60;;;;;;;9.62;86.37;100001.13;4992242;28;20235;-82
2023/11/07 04:52:48;;;;;;;2.40;1.10;;;;;;;9.61;86.33;100000.28;4992018;28;20207;-81
2023/11/07 04:55:14;;;;;;;2.37;1.03;;;;;;;9.62;86.19;100003.78;4993527;28;20207;-81
2023/11/07 04:57:40;;;;;;;3.43;0.80;;;;;;;9.59;86.19;100010.19;4993977;28;20696;-81
2023/11/07 05:00:10;;;;;;;1.53;0.90;;;;;;;9.57;86.88;100006.78;4996315;28;20232;-81
2023/11/07 05:02:37;;;;;;;1.77;0.70;;;;;;;9.59;86.54;100011.97;4996570;28;20254;-81
2023/11/07 05:05:05;;;;;;;3.03;1.13;;;;;;;9.60;86.10;100011.03;4995526;28;20203;-80
2023/11/07 05:07:31;;;;;;;3.70;0.70;;;;;;;9.59;86.82;100011.97;4996650;28;20204;-81
2023/11/07 05:10:03;;;;;;;1.40;0.80;;;;;;;9.64;86.23;99999.22;4995849;28;20796;-80
2023/11/07 05:12:30;;;;;;;1.50;0.80;;;;;;;9.65;86.25;100007.09;4995874;28;20779;-80
2023/11/07 05:14:56;;;;;;;2.03;0.60;;;;;;;9.63;86.32;100011.66;4997397;28;20207;-81
2023/11/07 05:17:24;;;;;;;1.73;0.70;;;;;;;9.64;85.99;100002.75;4995721;28;20224;-79
2023/11/07 05:19:51;;;;;;;4.20;1.53;;;;;;;9.68;86.12;100011.31;4995954;28;20652;-81
2023/11/07 05:22:17;;;;;;;2.87;0.60;;;;;;;9.65;86.22;100006.25;4996806;28;20207;-81
2023/11/07 05:24:43;;;;;;;1.97;1.00;;;;;;;9.67;86.26;100005.16;4995561;28;20218;-80
2023/11/07 05:27:10;;;;;;;3.03;0.50;;;;;;;9.69;85.71;100005.91;4995837;28;20229;-81
2023/11/07 05:29:37;;;;;;;1.87;0.60;;;;;;;9.64;85.66;100001.88;4995393;28;20239;-80
2023/11/07 05:32:04;;;;;;;3.50;0.70;;;;;;;9.64;86.12;100008.06;4995492;28;20210;-80
2023/11/07 05:34:31;;;;;;;0.90;0.63;;;;;;;9.64;85.75;100009.88;4995981;28;20644;-81
2023/11/07 05:36:58;;;;;;;1.97;0.80;;;;;;;9.66;85.87;100010.59;4994747;28;20697;-80
2023/11/07 05:39:27;;;;;;;1.13;0.60;;;;;;;9.63;85.75;100002.84;4995858;28;20320;-80
2023/11/07 05:41:54;;;;;;;3.23;0.70;;;;;;;9.66;85.66;100007.94;4995971;28;20224;-80
2023/11/07 05:44:20;;;;;;;1.23;0.60;;;;;;;9.68;85.48;100008.66;4995372;28;20204;-81
2023/11/07 05:46:47;;;;;;;2.50;1.20;;;;;;;9.69;85.58;100015.69;4995411;28;20207;-80
2023/11/07 05:49:14;;;;;;;2.87;1.10;;;;;;;9.70;85.87;100018.25;4996360;28;20243;-81
2023/11/07 05:51:41;;;;;;;8.73;3.50;;;;;;;9.67;85.31;100010.47;4995266;28;20619;-81
2023/11/07 05:54:09;;;;;;;7.70;4.00;;;;;;;9.66;85.78;100013.28;4996003;28;20204;-79
2023/11/07 05:56:35;;;;;;;2.47;0.93;;;;;;;9.70;84.89;100022.72;4995894;28;20231;-80
2023/11/07 05:59:02;;;;;;;0.97;0.47;;;;;;;9.72;85.07;100018.13;4995309;28;20782;-80
2023/11/07 06:01:29;;;;;;;1.90;0.60;;;;;;;9.72;84.96;100021.66;4995992;28;20211;-80
2023/11/07 06:03:55;;;;;;;3.77;0.93;;;;;;;9.74;84.94;100014.41;4995314;28;20212;-80
2023/11/07 06:06:24;;;;;;;3.73;0.53;;;;;;;9.77;84.77;100025.81;4995430;28;20215;-80
2023/11/07 06:08:53;;;;;;;2.00;0.60;;;;;;;9.73;85.21;100026.00;4994646;28;20235;-81
2023/11/07 06:11:19;;;;;;;2.30;0.80;;;;;;;9.72;84.99;100019.00;4995250;28;20815;-81
2023/11/07 06:13:46;;;;;;;1.13;0.60;;;;;;;9.68;85.10;100020.16;4996054;28;20211;-81
2023/11/07 06:16:12;;;;;;;0.80;0.50;;;;;;;9.67;85.10;100023.78;4995661;28;20589;-81
2023/11/07 06:18:39;;;;;;;2.43;0.53;;;;;;;9.67;84.83;100023.78;4994647;28;20215;-80
2023/11/07 06:21:06;;;;;;;1.03;0.70;;;;;;;9.68;85.10;100024.63;4995191;28;20208;-80
2023/11/07 06:23:32;;;;;;;1.57;0.70;;;;;;;9.65;85.61;100025.72;4994625;28;20207;-81
2023/11/07 06:26:00;;;;;;;3.67;0.60;;;;;;;9.60;85.68;100025.16;4995438;28;20222;-80
2023/11/07 06:28:28;;;;;;;2.70;0.83;;;;;;;9.61;85.70;100029.53;4995839;28;20200;-81
2023/11/07 06:31:03;;;;;;;1.20;0.70;;;;;;;9.58;85.22;100028.88;4995010;28;20319;-80
2023/11/07 06:33:33;;;;;;;1.23;0.90;;;;;;;9.58;85.52;100031.53;4995507;28;20192;-80
2023/11/07 06:35:59;;;;;;;2.57;1.30;;;;;;;9.61;85.42;100034.84;4995302;28;20234;-81
2023/11/07 06:38:27;;;;;;;3.63;0.63;;;;;;;9.60;85.39;100037.59;4994859;28;20250;-80
2023/11/07 06:40:55;;;;;;;3.03;0.70;;;;;;;9.55;85.58;100037.91;4995568;28;20223;-81
2023/11/07 06:43:23;;;;;;;1.07;0.60;;;;;;;9.56;85.37;100042.28;4994890;28;20207;-80
2023/11/07 06:45:50;;;;;;;0.90;0.50;;;;;;;9.58;85.31;100039.53;4993725;28;20219;-80
2023/11/07 06:48:16;;;;;;;2.00;0.60;;;;;;;9.59;85.38;100042.06;4994902;28;20204;-80
2023/11/07 06:50:43;;;;;;;2.17;0.70;;;;;;;9.56;85.35;100036.97;4993949;28;20251;-79
2023/11/07 06:53:10;;;;;;;1.53;0.60;;;;;;;9.59;85.51;100043.88;4995001;28;20211;-80
2023/11/07 06:55:37;;;;;;;3.63;0.67;;;;;;;9.56;85.08;100049.41;4994182;28;20211;-80
2023/11/07 06:58:04;;;;;;;2.30;0.63;;;;;;;9.58;84.64;100047.50;4994248;28;20716;-80
2023/11/07 07:00:33;;;;;;;1.27;0.60;;;;;;;9.56;85.33;100052.91;4993919;28;20219;-80
2023/11/07 07:03:01;;;;;;;2.10;0.50;;;;;;;9.55;85.47;100051.22;4993990;28;20204;-81
2023/11/07 07:05:28;;;;;;;1.70;0.50;;;;;;;9.56;85.35;100047.59;4993630;28;20211;-81
2023/11/07 07:07:55;;;;;;;1.20;0.53;;;;;;;9.57;85.47;100059.09;4993885;28;20204;-81
2023/11/07 07:10:22;;;;;;;2.00;0.70;;;;;;;9.58;85.41;100066.09;4993947;28;20247;-80
2023/11/07 07:12:48;;;;;;;1.27;0.40;;;;;;;9.58;85.67;100055.47;4993632;28;20239;-81
2023/11/07 07:15:15;;;;;;;2.00;0.70;;;;;;;9.58;85.40;100061.63;4994106;28;20609;-80
2023/11/07 07:17:43;;;;;;;1.63;0.80;;;;;;;9.60;86.22;100061.53;4993257;28;20235;-80
2023/11/07 07:20:12;;;;;;;2.40;0.80;;;;;;;9.58;86.11;100072.28;4993905;28;20233;-80
2023/11/07 07:22:39;;;;;;;0.97;0.63;;;;;;;9.55;86.08;100069.81;4994191;28;20316;-80
2023/11/07 07:25:06;;;;;;;1.20;0.40;;;;;;;9.58;86.04;100077.59;4993822;28;20227;-80
2023/11/07 07:27:34;;;;;;;1.70;0.70;;;;;;;9.60;85.62;100073.03;4994485;28;20211;-79
2023/11/07 07:30:01;;;;;;;1.87;0.90;;;;;;;9.63;85.65;100074.63;4993820;28;20817;-79
2023/11/07 07:32:29;;;;;;;1.93;1.00;;;;;;;9.60;85.66;100069.50;4994181;28;20668;-80
2023/11/07 07:34:57;;;;;;;1.83;0.70;;;;;;;9.60;85.85;100083.66;4994399;28;20215;-80
2023/11/07 07:37:23;;;;;;;2.57;1.00;;;;;;;9.58;85.91;100080.25;4993512;28;20223;-79
2023/11/07 07:39:50;;;;;;;3.80;0.70;;;;;;;9.61;85.96;100082.72;4994117;28;20238;-80
2023/11/07 07:42:17;;;;;;;2.27;0.90;;;;;;;9.62;85.62;100083.56;4994105;28;20266;-79
2023/11/07 07:44:45;;;;;;;2.27;0.90;;;;;;;9.62;86.15;100088.88;4993673;28;20203;-80
2023/11/07 07:47:12;;;;;;;3.10;0.70;;;;;;;9.60;86.30;100102.28;4992077;28;20208;-79
2023/11/07 07:49:40;;;;;;;3.10;1.10;;;;;;;9.62;86.13;100096.84;4992795;28;20231;-79
2023/11/07 07:52:09;;;;;;;2.27;0.70;;;;;;;9.58;86.53;100101.53;4993527;28;20291;-79
2023/11/07 07:54:37;;;;;;;4.03;0.80;;;;;;;9.61;86.52;100095.16;4993668;28;20235;-79
2023/11/07 07:57:05;;;;;;;1.80;0.50;;;;;;;9.64;86.45;100093.13;4993056;28;20293;-81
2023/11/07 07:59:32;;;;;;;4.67;1.23;;;;;;;9.66;86.82;100091.22;4992623;28;20278;-80
2023/11/07 08:01:59;;;;;;;2.40;0.60;;;;;;;9.68;86.64;100083.97;4993546;28;20203;-80
2023/11/07 08:04:28;;;;;;;1.80;0.40;;;;;;;9.75;86.58;100085.25;4992157;28;20613;-80
2023/11/07 08:06:57;;;;;;;2.83;0.67;;;;;;;9.84;86.30;100086.44;4993319;28;20214;-79
2023/11/07 08:09:26;;;;;;;2.17;1.47;;;;;;;9.92;85.92;100094.72;4993046;28;20235;-81
2023/11/07 08:11:56;;;;;;;4.60;1.00;;;;;;;9.96;85.72;100082.06;4992590;28;20246;-80
2023/11/07 08:14:23;;;;;;;4.00;1.67;;;;;;;10.03;85.22;100099.31;4993042;28;20217;-80
2023/11/07 08:16:50;;;;;;;6.33;1.73;;;;;;;10.09;85.20;100098.88;4992680;28;20215;-78
2023/11/07 08:19:17;;;;;;;0.90;0.47;;;;;;;10.17;84.86;100103.69;4992275;28;20239;-80
2023/11/07 08:21:44;;;;;;;1.47;0.60;;;;;;;10.26;84.66;100109.22;4993261;28;20696;-80
2023/11/07 08:24:12;;;;;;;1.83;0.90;;;;;;;10.33;83.51;100112.31;4992237;28;20588;-80
2023/11/07 08:26:41;;;;;;;1.60;0.80;;;;;;;10.40;83.95;100103.75;4992343;28;20752;-79
2023/11/07 08:29:08;;;;;;;3.87;1.30;;;;;;;10.46;83.11;100101.63;4992966;28;20227;-80
2023/11/07 08:31:34;;;;;;;5.47;1.30;;;;;;;10.43;83.10;100106.22;4992567;28;20582;-79
2023/11/07 08:34:01;;;;;;;4.03;1.07;;;;;;;10.48;83.38;100107.69;4996643;28;20696;-80
2023/11/07 08:36:27;;;;;;;1.37;0.90;;;;;;;10.54;82.56;100104.59;4996145;28;20215;-80
2023/11/07 08:38:54;;;;;;;2.00;0.70;;;;;;;10.58;82.55;100117.56;4995753;28;20235;-80
2023/11/07 08:41:23;;;;;;;2.90;0.80;;;;;;;10.64;82.15;100121.59;4996453;28;20216;-80
2023/11/07 08:43:51;;;;;;;3.47;0.80;;;;;;;10.70;82.32;100124.69;4995818;28;20215;-81
2023/11/07 08:46:19;;;;;;;2.30;0.60;;;;;;;10.75;82.37;100129.66;4995628;28;20234;-80
2023/11/07 08:48:45;;;;;;;2.63;0.90;;;;;;;10.79;81.71;100125.81;4996410;28;20201;-80
2023/11/07 08:51:14;;;;;;;2.30;0.93;;;;;;;10.83;81.38;100121.97;4995763;28;20216;-80
2023/11/07 08:53:42;;;;;;;1.77;0.70;;;;;;;10.84;81.00;100126.34;4996087;28;20311;-82
2023/11/07 08:56:09;;;;;;;1.60;0.60;;;;;;;10.93;80.78;100131.00;4995251;28;20211;-80
2023/11/07 08:58:36;;;;;;;1.57;0.50;;;;;;;10.98;80.79;100134.19;4995351;28;20277;-81
2023/11/07 09:01:04;;;;;;;1.67;0.60;;;;;;;11.00;80.29;100134.06;4995928;28;20231;-81
2023/11/07 09:03:33;;;;;;;3.07;0.80;;;;;;;11.00;80.48;100129.59;4995534;28;20204;-81
2023/11/07 09:06:00;;;;;;;4.07;1.30;;;;;;;10.99;80.40;100132.38;4995941;28;20222;-80
2023/11/07 09:08:27;;;;;;;2.53;0.80;;;;;;;10.99;80.51;100137.69;4996131;28;20204;-80
2023/11/07 09:10:54;;;;;;;3.80;1.10;;;;;;;11.02;80.59;100132.16;4995264;28;20228;-81
2023/11/07 09:13:21;;;;;;;2.20;1.00;;;;;;;11.08;80.62;100134.38;4995255;28;20208;-81
2023/11/07 09:15:48;;;;;;;1.77;0.90;;;;;;;11.09;80.79;100133.41;4995731;28;20212;-80
2023/11/07 09:18:16;;;;;;;2.30;0.50;;;;;;;11.11;80.68;100137.63;4994947;28;20225;-79
2023/11/07 09:20:42;;;;;;;1.33;0.77;;;;;;;11.14;80.25;100137.41;4995424;28;20239;-80
2023/11/07 09:23:09;;;;;;;2.00;1.13;;;;;;;11.19;79.35;100144.22;4995345;28;20215;-79
2023/11/07 09:25:36;;;;;;;0.60;0.40;;;;;;;11.21;78.44;100142.31;4994391;28;20212;-80
2023/11/07 09:28:03;;;;;;;0.60;0.40;;;;;;;11.18;78.80;100148.72;4996044;28;20233;-79
2023/11/07 09:30:30;;;;;;;1.30;0.60;;;;;;;11.20;79.29;100145.94;4995140;28;20234;-80
2023/11/07 09:32:58;;;;;;;2.17;0.30;;;;;;;11.24;78.15;100147.41;4995555;28;20214;-79
2023/11/07 09:35:26;;;;;;;1.17;0.63;;;;;;;11.27;77.79;100142.72;4995709;28;20209;-80
2023/11/07 09:37:54;;;;;;;3.27;0.50;;;;;;;11.32;76.87;100142.34;4995167;28;20237;-81
2023/11/07 09:40:23;;;;;;;1.00;0.40;;;;;;;11.32;77.37;100142.34;4995682;28;20275;-80
2023/11/07 09:42:50;;;;;;;0.73;0.50;;;;;;;11.44;76.77;100144.13;4994887;28;20540;-82
2023/11/07 09:45:18;;;;;;;2.37;0.50;;;;;;;11.49;76.41;100144.59;4994049;28;20781;-80
2023/11/07 09:47:47;;;;;;;2.50;0.83;;;;;;;11.55;75.70;100145.97;5012457;28;20197;-80
2023/11/07 09:50:16;;;;;;;0.50;0.47;;;;;;;11.57;75.66;100141.38;5013938;28;20585;-80
2023/11/07 09:52:45;;;;;;;4.13;2.73;;;;;;;11.63;75.65;100154.25;5013602;28;20269;-80
2023/11/07 09:55:14;;;;;;;1.10;0.60;;;;;;;11.67;75.54;100150.38;5014784;28;20209;-81
2023/11/07 09:57:42;;;;;;;2.53;0.50;;;;;;;11.71;75.36;100147.34;5013646;28;20745;-81
2023/11/07 10:00:11;;;;;;;0.93;0.50;;;;;;;11.78;74.96;100145.97;5013988;28;20226;-80
2023/11/07 10:02:37;;;;;;;0.73;0.40;;;;;;;11.86;73.98;100140.03;5014366;28;20583;-80
2023/11/07 10:05:07;;;;;;;3.03;1.90;;;;;;;11.92;74.43;100139.56;5013697;28;20209;-80
2023/11/07 10:07:33;;;;;;;1.50;0.70;;;;;;;11.96;72.93;100138.38;5027127;28;20213;-80
2023/11/07 10:10:05;;;;;;;11.27;4.43;;;;;;;11.96;73.16;100146.38;5033855;28;20232;-80
2023/11/07 10:12:34;;;;;;;1.53;0.30;;;;;;;12.00;71.53;100147.00;5032977;28;20196;-79
2023/11/07 10:15:14;;;;;;;1.87;0.30;;;;;;;11.97;71.52;100142.75;5034135;28;20909;-79
2023/11/07 10:17:42;;;;;;;0.57;0.50;;;;;;;11.99;72.14;100143.47;5016721;28;20213;-80
2023/11/07 10:20:11;;;;;;;0.30;0.30;;;;;;;12.03;71.47;100128.06;5013744;28;20225;-80
2023/11/07 10:22:44;;;;;;;0.40;0.27;;;;;;;12.08;71.10;100142.75;5014099;28;20219;-81
2023/11/07 10:25:26;;;;;;;1.53;0.37;;;;;;;12.08;71.94;100140.09;5013065;28;20225;-80
2023/11/07 10:27:53;;;;;;;2.83;0.50;;;;;;;12.07;71.23;100134.88;5014072;28;20185;-80
2023/11/07 10:30:20;;;;;;;1.03;0.40;;;;;;;12.02;71.87;100139.69;5013995;28;20231;-80
2023/11/07 10:32:47;;;;;;;0.90;0.40;;;;;;;11.99;71.87;100145.28;5013219;28;20643;-80
2023/11/07 10:35:13;;;;;;;0.57;0.47;;;;;;;12.02;72.32;100142.38;5013812;28;20670;-81
2023/11/07 10:37:40;;;;;;;0.97;0.40;;;;;;;12.05;72.38;100136.78;5012586;28;20218;-80
2023/11/07 10:40:08;;;;;;;0.77;0.40;;;;;;;12.05;72.52;100132.31;5012645;28;20229;-80
2023/11/07 10:42:45;;;;;;;1.10;0.50;;;;;;;12.07;72.34;100142.88;5013515;28;20209;-79
2023/11/07 10:45:14;;;;;;;1.53;0.60;;;;;;;12.07;72.34;100140.19;5013747;28;20193;-80
2023/11/07 10:47:42;;;;;;;0.30;0.30;;;;;;;12.02;71.94;100145.88;5013533;28;20207;-80
2023/11/07 10:50:14;;;;;;;0.70;0.40;;;;;;;12.01;71.88;100141.50;5012834;28;20235;-81
2023/11/07 10:52:40;;;;;;;3.03;0.60;;;;;;;12.03;72.28;100136.91;5013439;28;20234;-81
2023/11/07 10:55:09;;;;;;;0.43;0.27;;;;;;;12.01;72.58;100130.00;5013309;28;20213;-81
2023/11/07 10:57:39;;;;;;;1.10;0.30;;;;;;;11.99;73.13;100138.16;5013064;28;20320;-80
2023/11/07 11:00:13;;;;;;;1.27;0.40;;;;;;;12.03;73.07;100125.38;5012480;28;20233;-80
2023/11/07 11:02:53;;;;;;;1.00;0.30;;;;;;;12.10;74.00;100127.47;5013943;28;20619;-82
2023/11/07 11:05:23;;;;;;;0.30;0.30;;;;;;;12.18;73.23;100120.69;5012382;28;20642;-80
2023/11/07 11:07:51;;;;;;;0.43;0.30;;;;;;;12.21;72.50;100128.44;5013117;28;20218;-80
2023/11/07 11:10:21;;;;;;;0.57;0.30;;;;;;;12.22;71.51;100122.13;5012205;28;20226;-80
2023/11/07 11:12:51;;;;;;;0.83;0.37;;;;;;;12.23;71.25;100126.50;5011917;28;20234;-82
2023/11/07 11:15:19;;;;;;;1.03;0.40;;;;;;;12.20;71.83;100124.06;5013058;28;20271;-80
2023/11/07 11:17:52;;;;;;;0.93;0.50;;;;;;;12.18;72.24;100122.38;5012308;28;20237;-81
2023/11/07 11:20:26;;;;;;;0.40;0.40;;;;;;;12.19;71.60;100125.88;5012324;28;20325;-80
2023/11/07 11:23:02;;;;;;;2.13;0.40;;;;;;;12.18;71.83;100121.53;5012777;28;20193;-80
2023/11/07 11:25:41;;;;;;;1.00;0.30;;;;;;;12.17;72.49;100122.50;5011204;28;20218;-79
2023/11/07 11:28:09;;;;;;;0.87;0.40;;;;;;;12.18;72.31;100127.72;5013152;28;20186;-80
2023/11/07 11:30:40;;;;;;;2.30;0.40;;;;;;;12.18;72.19;100126.03;5012103;28;20218;-81
2023/11/07 11:33:08;;;;;;;0.50;0.33;;;;;;;12.18;72.71;100118.03;5013022;28;20573;-80
2023/11/07 11:35:39;;;;;;;1.37;0.50;;;;;;;12.18;72.69;100119.69;5013332;28;20317;-80
2023/11/07 11:38:10;;;;;;;0.73;0.30;;;;;;;12.16;72.78;100124.34;5012756;28;20215;-80